Time;durP1;ratioP1;P1;durP2;ratioP2;P2;SDS_P1;SDS_P2;PMS_P1;PMS_P2;Temp;Humidity;BMP_temperature;BMP_pressure;BME280_temperature;BME280_humidity;BME280_pressure;Samples;Min_cycle;Max_cycle;Signal;HPM_P1;HPM_P2
2022/05/21 00:00:29;;;;;;;2.42;2.20;;;;;;;;;;4979241;28;20638;-90
2022/05/21 00:02:55;;;;;;;2.80;2.53;;;;;;;;;;4997252;28;20204;-87
2022/05/21 00:05:22;;;;;;;2.80;2.50;;;;;;;;;;4981771;28;20211;-88
2022/05/21 00:07:48;;;;;;;2.88;2.65;;;;;;;;;;4996523;28;20191;-88
2022/05/21 00:10:15;;;;;;;2.80;2.60;;;;;;;;;;4979666;28;20275;-88
2022/05/21 00:12:41;;;;;;;3.20;2.65;;;;;;;;;;4995967;28;20211;-89
2022/05/21 00:15:08;;;;;;;4.50;3.33;;;;;;;;;;4998470;28;20208;-90
2022/05/21 00:17:34;;;;;;;3.45;2.95;;;;;;;;;;4980547;28;20192;-89
2022/05/21 00:20:00;;;;;;;3.92;3.40;;;;;;;;;;4979795;28;20188;-89
2022/05/21 00:22:26;;;;;;;3.80;3.50;;;;;;;;;;4979386;28;20649;-88
2022/05/21 00:24:52;;;;;;;3.40;3.10;;;;;;;;;;4979559;28;20188;-88
2022/05/21 00:27:18;;;;;;;3.50;3.20;;;;;;;;;;4996010;28;20198;-89
2022/05/21 00:29:44;;;;;;;5.03;3.10;;;;;;;;;;4979978;28;20421;-87
2022/05/21 00:32:10;;;;;;;3.30;3.00;;;;;;;;;;4996817;28;20211;-88
2022/05/21 00:34:36;;;;;;;3.30;3.00;;;;;;;;;;4979670;28;20210;-88
2022/05/21 00:37:03;;;;;;;4.03;3.22;;;;;;;;;;4997363;28;20179;-88
2022/05/21 00:39:29;;;;;;;3.33;3.03;;;;;;;;;;4978503;28;20176;-88
2022/05/21 00:41:55;;;;;;;3.17;2.88;;;;;;;;;;4985137;28;20215;-89
2022/05/21 00:44:21;;;;;;;4.22;2.80;;;;;;;;;;4978858;28;20182;-89
2022/05/21 00:46:48;;;;;;;3.00;2.67;;;;;;;;;;4979001;28;20278;-87
2022/05/21 00:49:33;;;;;;;3.25;2.92;;;;;;;;;;4980082;28;20198;-90
2022/05/21 00:52:04;;;;;;;3.00;2.70;;;;;;;;;;4978323;28;20286;-87
2022/05/21 00:54:35;;;;;;;2.72;2.53;;;;;;;;;;4978635;28;20680;-89
2022/05/21 00:57:04;;;;;;;4.03;2.53;;;;;;;;;;4978640;28;20214;-90
2022/05/21 00:59:48;;;;;;;2.78;2.58;;;;;;;;;;4980124;28;20184;-88
2022/05/21 01:02:20;;;;;;;2.53;2.30;;;;;;;;;;4980593;28;20692;-88
2022/05/21 01:04:46;;;;;;;2.55;2.35;;;;;;;;;;4988761;28;20592;-90
2022/05/21 01:07:14;;;;;;;3.00;2.80;;;;;;;;;;4985171;28;20183;-90
2022/05/21 01:09:41;;;;;;;2.50;2.30;;;;;;;;;;4977482;28;20247;-87
2022/05/21 01:12:08;;;;;;;3.00;2.70;;;;;;;;;;4977545;28;20204;-87
2022/05/21 01:14:36;;;;;;;2.90;2.70;;;;;;;;;;4979071;28;20199;-88
2022/05/21 01:17:03;;;;;;;3.00;2.75;;;;;;;;;;4980554;28;20200;-87
2022/05/21 01:19:29;;;;;;;4.05;3.47;;;;;;;;;;4981627;28;20568;-87
2022/05/21 01:21:55;;;;;;;3.05;2.85;;;;;;;;;;4982934;28;20203;-87
2022/05/21 01:24:21;;;;;;;3.20;2.60;;;;;;;;;;4982290;28;20191;-87
2022/05/21 01:26:47;;;;;;;3.10;2.88;;;;;;;;;;4983777;28;20198;-88
2022/05/21 01:29:20;;;;;;;3.72;2.60;;;;;;;;;;5001409;28;20180;-87
2022/05/21 01:31:50;;;;;;;3.10;2.80;;;;;;;;;;4982481;28;20236;-88
2022/05/21 01:34:16;;;;;;;2.75;2.55;;;;;;;;;;4991162;28;20204;-88
2022/05/21 01:36:42;;;;;;;2.70;2.50;;;;;;;;;;4999551;28;20299;-88
2022/05/21 01:39:08;;;;;;;2.35;2.17;;;;;;;;;;4985128;28;20266;-87
2022/05/21 01:41:34;;;;;;;2.83;2.55;;;;;;;;;;4985226;28;20203;-88
2022/05/21 01:46:44;;;;;;;2.25;2.00;;;;;;;;;;5002669;28;20660;-87
2022/05/21 01:49:11;;;;;;;2.40;2.17;;;;;;;;;;4985339;28;20192;-87
2022/05/21 01:51:37;;;;;;;2.80;2.10;;;;;;;;;;4984656;28;20195;-88
2022/05/21 01:54:03;;;;;;;2.20;2.05;;;;;;;;;;4983547;28;20215;-87
2022/05/21 01:56:29;;;;;;;2.83;2.10;;;;;;;;;;4990999;28;20187;-88
2022/05/21 01:58:55;;;;;;;3.00;2.50;;;;;;;;;;4989537;28;20179;-88
2022/05/21 02:01:21;;;;;;;2.65;2.30;;;;;;;;;;4988880;28;20249;-88
2022/05/21 02:03:47;;;;;;;3.25;2.47;;;;;;;;;;4989675;28;20275;-87
2022/05/21 02:06:13;;;;;;;2.55;2.35;;;;;;;;;;4987251;28;20183;-87
2022/05/21 02:08:39;;;;;;;2.42;2.20;;;;;;;;;;4986550;28;20656;-87
2022/05/21 02:11:06;;;;;;;3.05;2.75;;;;;;;;;;4986620;28;20188;-88
2022/05/21 02:13:33;;;;;;;3.00;2.63;;;;;;;;;;4989462;28;20180;-87
2022/05/21 02:15:59;;;;;;;4.40;2.50;;;;;;;;;;4985314;28;20199;-88
2022/05/21 02:18:25;;;;;;;4.63;3.17;;;;;;;;;;4994967;28;20195;-88
2022/05/21 02:20:52;;;;;;;3.13;2.78;;;;;;;;;;4984673;28;20645;-87
2022/05/21 02:23:18;;;;;;;3.72;3.38;;;;;;;;;;4984052;28;20196;-87
2022/05/21 02:25:45;;;;;;;3.58;2.83;;;;;;;;;;4997385;28;20538;-88
2022/05/21 02:28:12;;;;;;;3.70;2.95;;;;;;;;;;4998663;28;20185;-88
2022/05/21 02:30:39;;;;;;;3.67;3.38;;;;;;;;;;4986254;28;20575;-87
2022/05/21 02:33:05;;;;;;;3.47;3.17;;;;;;;;;;4984414;28;20673;-88
2022/05/21 02:35:31;;;;;;;3.50;2.97;;;;;;;;;;4985999;28;20207;-87
2022/05/21 02:40:42;;;;;;;3.50;3.20;;;;;;;;;;5003134;28;20190;-87
2022/05/21 02:43:07;;;;;;;3.80;3.42;;;;;;;;;;4986501;28;20690;-88
2022/05/21 02:45:34;;;;;;;4.68;3.75;;;;;;;;;;4983329;28;20187;-87
2022/05/21 02:48:00;;;;;;;3.58;3.28;;;;;;;;;;4984541;28;20192;-89
2022/05/21 02:50:28;;;;;;;3.28;2.97;;;;;;;;;;4986316;28;20185;-87
2022/05/21 02:52:54;;;;;;;3.00;2.80;;;;;;;;;;5001270;28;20247;-87
2022/05/21 02:55:20;;;;;;;3.22;2.90;;;;;;;;;;4986163;28;20878;-87
2022/05/21 02:57:46;;;;;;;3.53;3.22;;;;;;;;;;4984066;28;20708;-87
2022/05/21 03:00:23;;;;;;;3.50;3.03;;;;;;;;;;4989945;28;20200;-87
2022/05/21 03:02:49;;;;;;;3.35;2.95;;;;;;;;;;4985173;28;20211;-87
2022/05/21 03:05:15;;;;;;;3.80;3.00;;;;;;;;;;4987614;28;20258;-88
2022/05/21 03:07:42;;;;;;;3.40;2.90;;;;;;;;;;4987657;28;20322;-88
2022/05/21 03:10:21;;;;;;;4.70;3.00;;;;;;;;;;4983348;28;20180;-87
2022/05/21 03:12:51;;;;;;;3.77;2.87;;;;;;;;;;4980867;28;20212;-88
2022/05/21 03:15:17;;;;;;;5.47;3.50;;;;;;;;;;4997836;28;20228;-86
2022/05/21 03:17:44;;;;;;;4.45;3.35;;;;;;;;;;4980158;28;21192;-86
2022/05/21 03:20:13;;;;;;;3.13;2.83;;;;;;;;;;4999766;28;20183;-87
2022/05/21 03:22:39;;;;;;;3.45;3.08;;;;;;;;;;4997940;28;20196;-88
2022/05/21 03:25:05;;;;;;;5.20;3.50;;;;;;;;;;4980550;28;20231;-89
2022/05/21 03:27:31;;;;;;;3.45;3.15;;;;;;;;;;4996909;28;20183;-87
2022/05/21 03:29:57;;;;;;;4.45;3.25;;;;;;;;;;4998387;28;20188;-88
2022/05/21 03:32:23;;;;;;;4.03;3.20;;;;;;;;;;4997128;28;20270;-88
2022/05/21 03:34:49;;;;;;;4.20;3.10;;;;;;;;;;4996790;28;20461;-88
2022/05/21 03:37:15;;;;;;;3.50;3.20;;;;;;;;;;4980230;28;20223;-88
2022/05/21 03:39:41;;;;;;;3.70;3.33;;;;;;;;;;4980865;28;20934;-88
2022/05/21 03:42:07;;;;;;;4.22;3.20;;;;;;;;;;4979679;28;20222;-87
2022/05/21 03:44:33;;;;;;;3.65;3.33;;;;;;;;;;4996088;28;20207;-88
2022/05/21 03:46:59;;;;;;;5.15;3.33;;;;;;;;;;4998425;28;20246;-86
2022/05/21 03:49:25;;;;;;;5.05;3.90;;;;;;;;;;4980786;28;20669;-87
2022/05/21 03:51:51;;;;;;;4.13;3.55;;;;;;;;;;4995503;28;20681;-88
2022/05/21 03:54:18;;;;;;;4.27;3.47;;;;;;;;;;4998632;28;20295;-87
2022/05/21 03:56:44;;;;;;;4.28;3.88;;;;;;;;;;4981341;28;20207;-88
2022/05/21 03:59:10;;;;;;;4.50;3.97;;;;;;;;;;4980197;28;20274;-87
2022/05/21 04:01:37;;;;;;;5.15;4.10;;;;;;;;;;4980251;28;20203;-87
2022/05/21 04:04:03;;;;;;;5.23;4.10;;;;;;;;;;4992005;28;20661;-87
2022/05/21 04:06:29;;;;;;;4.88;4.28;;;;;;;;;;4980386;28;20241;-86
2022/05/21 04:08:55;;;;;;;5.05;4.55;;;;;;;;;;4997953;28;20192;-88
2022/05/21 04:11:21;;;;;;;5.78;4.25;;;;;;;;;;4998215;28;20211;-87
2022/05/21 04:13:47;;;;;;;5.72;3.72;;;;;;;;;;4997860;28;20289;-88
2022/05/21 04:16:13;;;;;;;5.45;4.65;;;;;;;;;;4980614;28;20939;-87
2022/05/21 04:18:39;;;;;;;5.43;4.25;;;;;;;;;;4978936;28;20262;-88
2022/05/21 04:21:05;;;;;;;5.40;4.22;;;;;;;;;;4980620;28;20195;-89
2022/05/21 04:23:30;;;;;;;4.57;4.18;;;;;;;;;;4978466;28;20315;-87
2022/05/21 04:25:57;;;;;;;4.50;4.10;;;;;;;;;;4996359;28;20274;-87
2022/05/21 04:28:23;;;;;;;4.15;3.75;;;;;;;;;;4979341;28;20183;-88
2022/05/21 04:30:49;;;;;;;4.60;3.90;;;;;;;;;;4979980;28;20192;-87
2022/05/21 04:33:15;;;;;;;5.35;3.65;;;;;;;;;;4979109;28;20265;-88
2022/05/21 04:38:26;;;;;;;4.28;3.58;;;;;;;;;;4998019;28;20726;-88
2022/05/21 04:40:52;;;;;;;4.32;3.53;;;;;;;;;;4990265;28;20195;-87
2022/05/21 04:43:18;;;;;;;5.75;3.53;;;;;;;;;;4980988;28;20243;-87
2022/05/21 04:45:44;;;;;;;3.70;3.28;;;;;;;;;;4996732;28;20184;-87
2022/05/21 04:48:10;;;;;;;5.38;3.55;;;;;;;;;;4979601;28;20882;-88
2022/05/21 04:50:37;;;;;;;3.50;3.20;;;;;;;;;;4979678;28;20207;-88
2022/05/21 04:53:03;;;;;;;4.13;2.97;;;;;;;;;;4979903;28;20261;-87
2022/05/21 04:55:29;;;;;;;3.25;3.00;;;;;;;;;;4979020;28;20207;-86
2022/05/21 04:57:55;;;;;;;3.85;3.03;;;;;;;;;;4995201;28;20272;-86
2022/05/21 05:00:21;;;;;;;4.50;3.38;;;;;;;;;;4994827;28;20210;-88
2022/05/21 05:02:47;;;;;;;3.70;3.33;;;;;;;;;;4997268;28;20242;-90
2022/05/21 05:05:13;;;;;;;4.20;3.35;;;;;;;;;;4980377;28;20215;-89
2022/05/21 05:07:40;;;;;;;4.15;2.90;;;;;;;;;;4981522;28;20180;-88
2022/05/21 05:10:07;;;;;;;5.85;3.78;;;;;;;;;;4998383;28;20551;-89
2022/05/21 05:12:33;;;;;;;4.38;2.95;;;;;;;;;;4983124;28;20661;-89
2022/05/21 05:15:00;;;;;;;4.05;2.90;;;;;;;;;;4983803;28;20196;-89
2022/05/21 05:17:27;;;;;;;5.80;3.40;;;;;;;;;;4985912;28;20230;-89
2022/05/21 05:19:56;;;;;;;6.47;3.17;;;;;;;;;;4983630;28;20211;-89
2022/05/21 05:22:22;;;;;;;3.15;2.85;;;;;;;;;;4981705;28;20195;-89
2022/05/21 05:24:48;;;;;;;3.33;3.03;;;;;;;;;;4982182;28;20547;-89
2022/05/21 05:27:14;;;;;;;3.78;3.38;;;;;;;;;;5000409;28;20262;-89
2022/05/21 05:29:40;;;;;;;4.10;3.63;;;;;;;;;;4981009;28;20282;-90
2022/05/21 05:32:07;;;;;;;4.57;3.33;;;;;;;;;;5005709;28;20207;-90
2022/05/21 05:34:33;;;;;;;6.75;4.00;;;;;;;;;;4985643;28;20223;-89
2022/05/21 05:37:01;;;;;;;4.28;3.88;;;;;;;;;;4986781;28;20184;-89
2022/05/21 05:39:28;;;;;;;5.80;4.20;;;;;;;;;;4986936;28;20180;-89
2022/05/21 05:41:54;;;;;;;6.32;4.80;;;;;;;;;;4987882;28;20692;-90
2022/05/21 05:44:21;;;;;;;6.55;4.65;;;;;;;;;;4986692;28;20195;-89
2022/05/21 05:46:47;;;;;;;5.00;4.25;;;;;;;;;;4986245;28;20207;-90
2022/05/21 05:49:31;;;;;;;5.15;4.65;;;;;;;;;;4986404;28;20187;-88
2022/05/21 05:51:58;;;;;;;6.70;5.20;;;;;;;;;;5006126;28;20765;-89
2022/05/21 05:54:35;;;;;;;6.85;5.60;;;;;;;;;;4988611;28;20208;-90
2022/05/21 05:57:02;;;;;;;6.35;5.75;;;;;;;;;;4991928;28;20171;-89
2022/05/21 06:05:04;;;;;;;6.75;6.05;;;;;;;;;;5000708;28;20191;-89
2022/05/21 06:07:31;;;;;;;7.60;6.28;;;;;;;;;;4985237;28;20192;-88
2022/05/21 06:10:06;;;;;;;8.15;6.72;;;;;;;;;;5000518;28;20681;-87
2022/05/21 06:12:32;;;;;;;7.32;6.63;;;;;;;;;;4999654;28;20200;-87
2022/05/21 06:15:00;;;;;;;8.07;6.93;;;;;;;;;;4981713;28;20595;-87
2022/05/21 06:17:26;;;;;;;7.25;6.00;;;;;;;;;;4983058;28;21269;-87
2022/05/21 06:19:53;;;;;;;7.72;6.90;;;;;;;;;;4982781;28;20275;-87
2022/05/21 06:22:28;;;;;;;8.60;6.80;;;;;;;;;;4981682;28;20247;-86
2022/05/21 06:24:54;;;;;;;8.65;6.80;;;;;;;;;;4998825;28;20186;-87
2022/05/21 06:27:20;;;;;;;7.03;6.32;;;;;;;;;;4981311;28;20223;-87
2022/05/21 06:29:47;;;;;;;8.50;7.00;;;;;;;;;;4981522;28;20225;-87
2022/05/21 06:32:13;;;;;;;7.45;6.78;;;;;;;;;;4981866;28;20215;-87
2022/05/21 06:34:39;;;;;;;7.30;6.60;;;;;;;;;;4981056;28;20204;-88
2022/05/21 06:37:09;;;;;;;7.20;6.50;;;;;;;;;;4983276;28;20188;-88
2022/05/21 06:39:36;;;;;;;6.75;6.03;;;;;;;;;;5000079;28;20172;-87
2022/05/21 06:42:02;;;;;;;8.20;7.07;;;;;;;;;;4982744;28;20215;-88
2022/05/21 06:44:28;;;;;;;6.97;6.28;;;;;;;;;;4981958;28;20736;-87
2022/05/21 06:46:57;;;;;;;6.28;5.68;;;;;;;;;;4982410;28;20188;-87
2022/05/21 06:49:26;;;;;;;7.50;6.80;;;;;;;;;;5000074;28;20269;-84
2022/05/21 06:51:53;;;;;;;6.95;6.25;;;;;;;;;;4998606;28;20231;-86
2022/05/21 06:54:19;;;;;;;7.50;6.72;;;;;;;;;;4982493;28;20204;-85
2022/05/21 06:56:45;;;;;;;7.82;6.30;;;;;;;;;;4982184;28;20195;-85
2022/05/21 06:59:11;;;;;;;6.72;6.03;;;;;;;;;;4978096;28;20188;-86
2022/05/21 07:01:37;;;;;;;8.45;6.80;;;;;;;;;;4981764;28;20298;-84
2022/05/21 07:04:03;;;;;;;6.80;6.13;;;;;;;;;;4994414;28;20192;-86
2022/05/21 07:09:14;;;;;;;9.52;7.07;;;;;;;;;;4999410;28;20199;-85
2022/05/21 07:11:40;;;;;;;8.00;7.18;;;;;;;;;;4999086;28;20204;-84
2022/05/21 07:14:06;;;;;;;8.10;6.65;;;;;;;;;;4995551;28;20290;-86
2022/05/21 07:16:33;;;;;;;7.35;6.38;;;;;;;;;;4983339;28;20226;-86
2022/05/21 07:18:59;;;;;;;8.05;7.00;;;;;;;;;;4983621;28;20575;-84
2022/05/21 07:21:25;;;;;;;8.27;6.40;;;;;;;;;;5014396;28;20199;-84
2022/05/21 07:23:51;;;;;;;9.10;7.40;;;;;;;;;;4974666;28;20241;-84
2022/05/21 07:26:18;;;;;;;10.30;6.70;;;;;;;;;;4973536;28;20654;-84
2022/05/21 07:28:44;;;;;;;7.30;6.55;;;;;;;;;;4973662;28;20187;-85
2022/05/21 07:31:10;;;;;;;7.78;6.78;;;;;;;;;;4970594;28;20593;-84
2022/05/21 07:33:36;;;;;;;8.05;6.97;;;;;;;;;;4995082;28;20179;-85
2022/05/21 07:36:02;;;;;;;8.95;8.02;;;;;;;;;;4980285;28;20249;-85
2022/05/21 07:38:28;;;;;;;9.45;7.30;;;;;;;;;;4976071;28;20187;-86
2022/05/21 07:40:54;;;;;;;9.60;7.85;;;;;;;;;;4995158;28;20192;-87
2022/05/21 07:43:27;;;;;;;8.85;7.88;;;;;;;;;;4973674;28;20234;-85
2022/05/21 07:45:56;;;;;;;9.70;8.70;;;;;;;;;;4980946;28;20185;-87
2022/05/21 07:48:22;;;;;;;8.63;7.45;;;;;;;;;;4981152;28;20180;-84
2022/05/21 07:50:53;;;;;;;11.77;8.82;;;;;;;;;;4981634;28;20242;-86
2022/05/21 07:53:22;;;;;;;10.82;8.23;;;;;;;;;;4970979;28;20211;-85
2022/05/21 07:55:50;;;;;;;10.23;8.35;;;;;;;;;;4982449;28;20219;-87
2022/05/21 07:58:16;;;;;;;10.25;9.07;;;;;;;;;;4973297;28;20243;-86
2022/05/21 08:00:43;;;;;;;10.45;8.63;;;;;;;;;;4976808;28;20251;-83
2022/05/21 08:03:09;;;;;;;12.15;9.02;;;;;;;;;;4973594;28;20212;-84
2022/05/21 08:05:35;;;;;;;13.70;9.18;;;;;;;;;;4969826;28;20223;-84
2022/05/21 08:08:01;;;;;;;9.73;8.70;;;;;;;;;;4982767;28;20270;-85
2022/05/21 08:10:28;;;;;;;11.80;9.82;;;;;;;;;;4982183;28;20188;-88
2022/05/21 08:12:54;;;;;;;11.38;9.15;;;;;;;;;;4993702;28;20270;-84
2022/05/21 08:15:21;;;;;;;10.60;9.55;;;;;;;;;;4990831;28;20212;-85
2022/05/21 08:17:47;;;;;;;14.65;9.60;;;;;;;;;;4981167;28;20760;-86
2022/05/21 08:20:14;;;;;;;11.70;9.27;;;;;;;;;;4994157;28;20274;-84
2022/05/21 08:28:13;;;;;;;10.05;8.55;;;;;;;;;;4990707;28;20202;-87
2022/05/21 08:30:39;;;;;;;9.73;8.75;;;;;;;;;;4992336;28;20187;-86
2022/05/21 08:33:06;;;;;;;14.20;9.55;;;;;;;;;;4988368;28;20227;-84
2022/05/21 08:35:32;;;;;;;10.45;9.27;;;;;;;;;;4973702;28;20745;-84
2022/05/21 08:37:58;;;;;;;9.95;8.50;;;;;;;;;;4982684;28;20195;-85
2022/05/21 08:40:29;;;;;;;9.80;6.97;;;;;;;;;;4968892;28;20572;-87
2022/05/21 08:42:58;;;;;;;14.05;7.72;;;;;;;;;;4970897;28;20211;-85
2022/05/21 08:45:25;;;;;;;11.88;7.38;;;;;;;;;;4988762;28;20543;-85
2022/05/21 08:47:59;;;;;;;8.30;7.50;;;;;;;;;;4986592;28;20207;-85
2022/05/21 08:50:26;;;;;;;9.45;7.50;;;;;;;;;;4976768;28;20188;-84
2022/05/21 08:53:15;;;;;;;7.97;6.80;;;;;;;;;;4976254;28;20306;-84
2022/05/21 08:55:44;;;;;;;9.27;6.95;;;;;;;;;;4969641;28;20219;-85
2022/05/21 08:58:16;;;;;;;7.45;6.68;;;;;;;;;;4973752;28;20259;-87
2022/05/21 09:00:44;;;;;;;7.43;6.72;;;;;;;;;;4974141;28;20219;-84
2022/05/21 09:03:14;;;;;;;7.90;7.00;;;;;;;;;;4972418;28;20200;-87
2022/05/21 09:05:43;;;;;;;9.05;6.78;;;;;;;;;;4988588;28;20187;-85
2022/05/21 09:08:09;;;;;;;7.45;6.68;;;;;;;;;;4996712;28;20271;-85
2022/05/21 09:10:54;;;;;;;7.82;6.63;;;;;;;;;;4977228;28;20189;-87
2022/05/21 09:13:36;;;;;;;8.25;6.20;;;;;;;;;;4995429;28;20216;-86
2022/05/21 09:18:49;;;;;;;7.03;6.30;;;;;;;;;;5003443;28;20249;-85
2022/05/21 09:21:19;;;;;;;6.40;5.70;;;;;;;;;;4978442;28;20194;-85
2022/05/21 09:23:48;;;;;;;6.20;5.60;;;;;;;;;;4984342;28;20223;-86
2022/05/21 09:26:14;;;;;;;8.25;5.97;;;;;;;;;;4998814;28;20449;-88
2022/05/21 09:28:41;;;;;;;5.78;5.28;;;;;;;;;;4991149;28;20180;-86
2022/05/21 09:31:08;;;;;;;6.15;5.22;;;;;;;;;;4978290;28;20184;-85
2022/05/21 09:33:46;;;;;;;5.63;5.13;;;;;;;;;;4985406;28;20255;-87
2022/05/21 09:36:21;;;;;;;5.85;5.25;;;;;;;;;;4980237;28;20198;-85
2022/05/21 09:38:50;;;;;;;6.18;5.57;;;;;;;;;;4985331;28;20176;-86
2022/05/21 09:41:27;;;;;;;7.03;5.47;;;;;;;;;;4989192;28;20195;-86
2022/05/21 09:47:13;;;;;;;6.97;6.22;;;;;;;;;;5001754;28;20258;-84
2022/05/21 09:49:40;;;;;;;6.60;5.10;;;;;;;;;;5000407;28;20267;-88
2022/05/21 09:52:07;;;;;;;5.97;5.38;;;;;;;;;;4983019;28;20251;-85
2022/05/21 09:54:40;;;;;;;6.30;4.85;;;;;;;;;;4996166;28;20227;-87
2022/05/21 09:57:06;;;;;;;6.25;5.00;;;;;;;;;;4995985;28;20215;-86
2022/05/21 09:59:33;;;;;;;5.60;5.03;;;;;;;;;;4995134;28;20218;-86
2022/05/21 10:02:01;;;;;;;5.68;5.15;;;;;;;;;;4980708;28;20208;-84
2022/05/21 10:04:36;;;;;;;6.32;5.10;;;;;;;;;;4974850;28;20184;-86
2022/05/21 10:13:23;;;;;;;5.30;4.30;;;;;;;;;;4995211;28;20203;-86
2022/05/21 10:15:51;;;;;;;5.15;4.20;;;;;;;;;;4979086;28;20215;-86
2022/05/21 10:18:40;;;;;;;7.25;5.07;;;;;;;;;;5004759;28;20721;-85
2022/05/21 10:21:25;;;;;;;6.38;4.60;;;;;;;;;;4982450;28;20635;-90
2022/05/21 10:24:03;;;;;;;6.97;4.85;;;;;;;;;;4992936;28;20194;-87
2022/05/21 10:26:35;;;;;;;6.53;5.00;;;;;;;;;;4998943;28;20186;-86
2022/05/21 10:29:20;;;;;;;5.05;4.55;;;;;;;;;;4997178;28;20265;-86
2022/05/21 10:31:58;;;;;;;6.45;4.20;;;;;;;;;;4983245;28;20204;-87
2022/05/21 10:34:24;;;;;;;4.72;3.90;;;;;;;;;;4982169;28;20286;-86
2022/05/21 10:37:02;;;;;;;5.97;4.53;;;;;;;;;;4997824;28;20290;-85
2022/05/21 10:39:48;;;;;;;4.47;3.97;;;;;;;;;;4981484;28;20172;-86
2022/05/21 10:42:36;;;;;;;5.90;4.00;;;;;;;;;;4982588;28;20215;-85
2022/05/21 10:45:02;;;;;;;4.30;3.85;;;;;;;;;;4998170;28;20240;-89
2022/05/21 10:47:48;;;;;;;6.78;4.22;;;;;;;;;;5001391;28;20208;-85
2022/05/21 10:50:17;;;;;;;5.53;3.67;;;;;;;;;;4981891;28;20258;-86
2022/05/21 10:52:53;;;;;;;4.55;4.15;;;;;;;;;;4984393;28;20208;-85
2022/05/21 10:55:26;;;;;;;5.80;4.05;;;;;;;;;;5000409;28;20235;-85
2022/05/21 10:58:12;;;;;;;4.97;4.20;;;;;;;;;;5000780;28;20180;-86
2022/05/21 11:00:43;;;;;;;5.47;4.35;;;;;;;;;;4996926;28;20176;-86
2022/05/21 11:03:21;;;;;;;7.22;4.57;;;;;;;;;;4979279;28;20759;-86
2022/05/21 11:06:05;;;;;;;5.78;4.25;;;;;;;;;;4991332;28;20188;-85
2022/05/21 11:08:54;;;;;;;5.38;4.80;;;;;;;;;;4995423;28;20195;-88
2022/05/21 11:11:36;;;;;;;6.18;4.60;;;;;;;;;;4991122;28;20212;-89
2022/05/21 11:14:02;;;;;;;6.22;4.82;;;;;;;;;;4982688;28;20191;-88
2022/05/21 11:16:47;;;;;;;6.35;4.60;;;;;;;;;;4980277;28;20555;-85
2022/05/21 11:19:19;;;;;;;4.80;4.25;;;;;;;;;;4994066;28;20184;-86
2022/05/21 11:21:52;;;;;;;5.15;4.18;;;;;;;;;;4989885;28;20212;-89
2022/05/21 11:24:21;;;;;;;5.72;3.95;;;;;;;;;;4975359;28;20211;-89
2022/05/21 11:27:02;;;;;;;4.35;3.95;;;;;;;;;;4980810;28;20183;-89
2022/05/21 11:29:32;;;;;;;5.32;3.75;;;;;;;;;;4979696;28;20172;-89
2022/05/21 11:37:36;;;;;;;5.45;3.00;;;;;;;;;;4998614;28;20561;-89
2022/05/21 11:40:09;;;;;;;4.30;2.88;;;;;;;;;;4987072;28;20279;-89
2022/05/21 11:50:20;;;;;;;4.80;3.22;;;;;;;;;;5005915;28;20239;-68
2022/05/21 11:52:51;;;;;;;5.40;3.55;;;;;;;;;;5021116;28;20187;-69
2022/05/21 11:55:28;;;;;;;9.50;4.40;;;;;;;;;;5010081;28;20241;-68
2022/05/21 11:58:02;;;;;;;7.30;4.18;;;;;;;;;;5015862;28;20198;-69
2022/05/21 12:00:28;;;;;;;7.40;4.60;;;;;;;;;;5024725;28;20183;-67
2022/05/21 12:02:53;;;;;;;5.13;3.80;;;;;;;;;;5033676;28;20194;-68
2022/05/21 12:05:37;;;;;;;5.35;4.22;;;;;;;;;;5026979;28;20658;-71
2022/05/21 12:08:22;;;;;;;4.72;4.03;;;;;;;;;;5031243;28;20730;-68
2022/05/21 12:11:02;;;;;;;7.55;4.05;;;;;;;;;;5035022;28;20194;-69
2022/05/21 12:13:34;;;;;;;7.07;3.78;;;;;;;;;;5029792;28;20221;-69
2022/05/21 12:16:24;;;;;;;6.30;3.55;;;;;;;;;;5025467;28;20216;-72
2022/05/21 12:18:55;;;;;;;4.72;3.90;;;;;;;;;;5030874;28;20652;-68
2022/05/21 12:21:35;;;;;;;6.93;3.80;;;;;;;;;;5027094;28;20179;-69
2022/05/21 12:24:19;;;;;;;6.43;3.97;;;;;;;;;;5032706;28;20193;-69
2022/05/21 12:26:46;;;;;;;5.60;4.47;;;;;;;;;;5024532;28;20187;-68
2022/05/21 12:29:12;;;;;;;6.38;3.78;;;;;;;;;;5026345;28;20252;-69
2022/05/21 12:31:50;;;;;;;4.80;3.40;;;;;;;;;;5031536;28;20581;-69
2022/05/21 12:34:31;;;;;;;3.95;3.25;;;;;;;;;;5031646;28;20297;-69
2022/05/21 12:37:06;;;;;;;3.95;3.60;;;;;;;;;;5029990;28;20894;-69
2022/05/21 12:39:32;;;;;;;4.72;3.03;;;;;;;;;;5031893;28;20187;-70
2022/05/21 12:42:05;;;;;;;6.43;3.28;;;;;;;;;;5037025;28;20206;-68
2022/05/21 12:44:36;;;;;;;6.78;3.35;;;;;;;;;;5032745;28;20183;-68
2022/05/21 12:47:03;;;;;;;4.82;3.80;;;;;;;;;;5025119;28;20191;-69
2022/05/21 12:49:29;;;;;;;6.57;3.42;;;;;;;;;;5033377;28;20793;-70
2022/05/21 12:51:55;;;;;;;9.00;5.22;;;;;;;;;;5024286;28;20652;-69
2022/05/21 12:54:22;;;;;;;7.20;6.00;;;;;;;;;;5023590;28;20293;-68
2022/05/21 12:56:49;;;;;;;8.65;6.53;;;;;;;;;;5030790;28;20222;-68
2022/05/21 12:59:22;;;;;;;11.23;6.93;;;;;;;;;;5027885;28;20260;-69
2022/05/21 13:02:12;;;;;;;10.32;6.72;;;;;;;;;;5029541;28;20278;-68
2022/05/21 13:04:39;;;;;;;9.35;5.10;;;;;;;;;;5032982;28;20182;-67
2022/05/21 13:07:20;;;;;;;4.55;4.00;;;;;;;;;;5028281;28;20252;-69
2022/05/21 13:09:53;;;;;;;4.95;4.45;;;;;;;;;;5013267;28;20815;-68
2022/05/21 13:12:21;;;;;;;6.25;4.32;;;;;;;;;;5030157;28;20187;-68
2022/05/21 13:14:48;;;;;;;4.53;3.13;;;;;;;;;;5035779;28;20199;-68
2022/05/21 13:17:31;;;;;;;5.40;4.03;;;;;;;;;;5031095;28;20186;-68
2022/05/21 13:20:09;;;;;;;6.40;5.03;;;;;;;;;;5023650;28;20179;-66
2022/05/21 13:22:48;;;;;;;7.25;5.72;;;;;;;;;;5023067;28;20182;-68
2022/05/21 13:25:15;;;;;;;6.45;5.65;;;;;;;;;;5029564;28;20206;-68
2022/05/21 13:27:49;;;;;;;8.65;6.03;;;;;;;;;;5029249;28;20313;-69
2022/05/21 13:30:16;;;;;;;8.23;6.55;;;;;;;;;;5039049;28;20549;-69
2022/05/21 13:32:42;;;;;;;8.80;6.35;;;;;;;;;;5029608;28;20270;-69
2022/05/21 13:35:26;;;;;;;8.27;6.75;;;;;;;;;;5026254;28;20274;-69
2022/05/21 13:37:53;;;;;;;6.80;5.78;;;;;;;;;;5037876;28;20209;-70
2022/05/21 13:40:26;;;;;;;12.73;6.28;;;;;;;;;;5026470;28;20523;-67
2022/05/21 13:42:55;;;;;;;6.82;5.70;;;;;;;;;;5030786;28;20535;-70
2022/05/21 13:45:25;;;;;;;8.50;5.78;;;;;;;;;;5030169;28;20266;-68
2022/05/21 13:47:53;;;;;;;6.88;5.28;;;;;;;;;;5017535;28;20207;-69
2022/05/21 13:50:20;;;;;;;7.75;5.57;;;;;;;;;;5022700;28;20187;-69
2022/05/21 13:52:47;;;;;;;7.32;6.00;;;;;;;;;;5033825;28;20547;-67
2022/05/21 13:55:14;;;;;;;5.70;5.20;;;;;;;;;;5034256;28;20300;-69
2022/05/21 13:57:40;;;;;;;6.07;5.40;;;;;;;;;;5037987;28;20199;-68
2022/05/21 14:00:07;;;;;;;6.22;4.57;;;;;;;;;;5032667;28;20174;-68
2022/05/21 14:02:34;;;;;;;6.55;4.70;;;;;;;;;;5032763;28;20211;-68
2022/05/21 14:05:19;;;;;;;4.68;3.90;;;;;;;;;;5028999;28;20515;-68
2022/05/21 14:07:51;;;;;;;6.97;4.00;;;;;;;;;;5033222;28;20595;-69
2022/05/21 14:10:29;;;;;;;5.72;3.75;;;;;;;;;;5036449;28;20229;-68
2022/05/21 14:12:55;;;;;;;5.25;3.25;;;;;;;;;;5032951;28;20191;-69
2022/05/21 14:15:27;;;;;;;3.92;3.00;;;;;;;;;;5030347;28;20214;-68
2022/05/21 14:17:54;;;;;;;5.95;3.38;;;;;;;;;;5040393;28;20230;-68
2022/05/21 14:20:23;;;;;;;4.93;2.92;;;;;;;;;;5027135;28;20190;-68
2022/05/21 14:22:50;;;;;;;3.95;2.70;;;;;;;;;;5027711;28;20607;-69
2022/05/21 14:25:23;;;;;;;4.70;2.22;;;;;;;;;;5029183;28;20245;-69
2022/05/21 14:27:56;;;;;;;3.72;2.00;;;;;;;;;;5033620;28;20290;-67
2022/05/21 14:30:30;;;;;;;4.43;2.17;;;;;;;;;;5029056;28;20191;-69
2022/05/21 14:32:56;;;;;;;5.57;2.63;;;;;;;;;;5033083;28;20186;-67
2022/05/21 14:35:22;;;;;;;3.70;2.03;;;;;;;;;;5025994;28;20463;-69
2022/05/21 14:37:49;;;;;;;4.82;2.20;;;;;;;;;;5032725;28;20206;-69
2022/05/21 14:40:16;;;;;;;3.65;1.98;;;;;;;;;;5035524;28;20179;-70
2022/05/21 14:42:43;;;;;;;5.55;2.38;;;;;;;;;;5027258;28;20186;-68
2022/05/21 14:45:14;;;;;;;5.20;2.15;;;;;;;;;;5029654;28;20194;-69
2022/05/21 14:47:52;;;;;;;2.80;1.75;;;;;;;;;;5028638;28;20202;-68
2022/05/21 14:53:05;;;;;;;3.58;2.13;;;;;;;;;;5031180;28;20306;-67
2022/05/21 14:55:32;;;;;;;3.67;2.40;;;;;;;;;;5026387;28;20215;-67
2022/05/21 14:57:58;;;;;;;6.07;1.90;;;;;;;;;;5031368;28;20199;-69
2022/05/21 15:00:25;;;;;;;3.60;1.80;;;;;;;;;;5026908;28;20544;-68
2022/05/21 15:02:51;;;;;;;4.70;2.28;;;;;;;;;;5031488;28;20193;-70
2022/05/21 15:05:17;;;;;;;5.18;2.28;;;;;;;;;;5028784;28;20190;-69
2022/05/21 15:07:48;;;;;;;3.35;2.20;;;;;;;;;;5032349;28;20681;-68
2022/05/21 15:10:15;;;;;;;4.47;2.15;;;;;;;;;;5031062;28;20931;-69
2022/05/21 15:12:41;;;;;;;4.25;2.83;;;;;;;;;;5038674;28;20183;-70
2022/05/21 15:15:08;;;;;;;5.75;2.80;;;;;;;;;;5025043;28;20214;-69
2022/05/21 15:17:33;;;;;;;3.72;2.60;;;;;;;;;;5025910;28;20220;-69
2022/05/21 15:19:59;;;;;;;6.30;2.80;;;;;;;;;;5025740;28;20597;-70
2022/05/21 15:22:27;;;;;;;5.00;3.00;;;;;;;;;;5032425;28;20182;-68
2022/05/21 15:24:53;;;;;;;5.45;2.95;;;;;;;;;;5034133;28;20185;-71
2022/05/21 15:27:19;;;;;;;8.23;3.65;;;;;;;;;;5031252;28;20190;-69
2022/05/21 15:29:45;;;;;;;6.32;3.22;;;;;;;;;;5027120;28;20193;-69
2022/05/21 15:32:12;;;;;;;6.97;3.45;;;;;;;;;;5038038;28;20244;-68
2022/05/21 15:34:38;;;;;;;9.02;3.50;;;;;;;;;;5036213;28;20203;-70
2022/05/21 15:37:04;;;;;;;5.90;3.38;;;;;;;;;;5035942;28;20187;-70
2022/05/21 15:39:30;;;;;;;5.43;2.97;;;;;;;;;;5030553;28;20561;-69
2022/05/21 15:41:57;;;;;;;5.82;3.88;;;;;;;;;;5033038;28;20599;-68
2022/05/21 15:44:24;;;;;;;7.95;3.65;;;;;;;;;;5027441;28;20694;-68